Search for airport 
image banner adimage banner adimage banner ad
image banner ad

L71 - California City Muni

Located in California City, United States

ICAO - L71, IATA -

Data provided by Airmate  

General information

Coordinates: N35°9'5" W118°1'0"
Elevation is 2454 feet MSL.
Magnetic variation is 14° East
View others Airports in California

Operational data

Special qualification required
Current time UTC:
Current local time:
Weather at : KMHV - Mojave Air And Space Port ( 16 km )
METAR: KMHV 211040Z AUTO 28023KT 10SM CLR 26/02 A2990 RMK A01
View NOTAMs / SUP AIP / TFR affecting this airport [VIEW]
Communications frequencies: [VIEW]

Runways:

RWY identifierQFULength (ft)Width (ft)SurfaceLDA (ft)
0675°602760ASPH
24256°602760ASPH

Airport contact information

Address: California City United States

Satellite view of L71